Terminal Aerodrome Forecast
Issued by NWS Atlanta, GA

Home | Current Version | Previous Version | Text Only | Print | Product List | Glossary On
Versions: 1 2 3 4 5 6 7 8 9 10 11 12 13 14 15 16 17 18 19 20 21 22 23 24 25 26 27 28 29 30 31 32 33 34 35
851
FTUS42 KFFC 260554
TAFAHN
TAF
KAHN 260554Z 2606/2706 16006KT P6SM VCSH OVC045
     FM261100 16007KT 4SM SHRA SCT008 OVC020
     FM261500 18008KT P6SM VCSH BKN035
     FM261800 18009KT P6SM VCSH BKN035 PROB30 2618/2624 5SM TSRA
      BKN035CB
     FM270000 16005KT P6SM BKN050
     FM270500 16004KT P6SM BKN035=

USA.gov is the U.S. government's official web portal to all federal, state and local government web resources and services.